Time;durP1;ratioP1;P1;durP2;ratioP2;P2;SDS_P1;SDS_P2;PMS_P1;PMS_P2;Temp;Humidity;BMP_temperature;BMP_pressure;BME280_temperature;BME280_humidity;BME280_pressure;Samples;Min_cycle;Max_cycle;Signal;HPM_P1;HPM_P2
2022/11/13 00:02:06;;;;;;;;;;;;;;;4.77;85.72;102773.28;1820124;79;20387;-51
2022/11/13 00:04:52;;;;;;;;;;;;;;;4.78;85.97;102766.35;1820146;79;20169;-50
2022/11/13 00:07:38;;;;;;;;;;;;;;;4.82;86.05;102770.77;1820021;79;20121;-49
2022/11/13 00:10:24;;;;;;;;;;;;;;;4.86;86.10;102760.82;1820165;79;20391;-50
2022/11/13 00:13:10;;;;;;;;;;;;;;;4.88;86.02;102747.36;1820121;79;20231;-50
2022/11/13 00:16:00;;;;;;;;;;;;;;;4.86;86.17;102745.59;1820009;79;20169;-49
2022/11/13 00:18:46;;;;;;;;;;;;;;;4.86;86.34;102727.33;1820191;79;20133;-52
2022/11/13 00:21:32;;;;;;;;;;;;;;;4.88;86.34;102722.56;1820064;78;20109;-50
2022/11/13 00:24:18;;;;;;;;;;;;;;;4.89;86.21;102717.81;1820088;79;20399;-49
2022/11/13 00:27:03;;;;;;;;;;;;;;;4.88;86.52;102721.27;1820084;79;20192;-49
2022/11/13 00:29:49;;;;;;;;;;;;;;;4.88;86.68;102718.66;1820136;79;20430;-51
2022/11/13 00:32:36;;;;;;;;;;;;;;;4.88;86.60;102724.31;1820022;78;20140;-52
2022/11/13 00:35:22;;;;;;;;;;;;;;;4.89;86.53;102719.13;1820102;79;20117;-50
2022/11/13 00:38:08;;;;;;;;;;;;;;;4.86;86.54;102715.14;1820160;79;20146;-50
2022/11/13 00:40:53;;;;;;;;;;;;;;;4.79;86.55;102705.02;1820026;78;20140;-51
2022/11/13 00:43:40;;;;;;;;;;;;;;;4.73;86.45;102701.45;1820093;79;20145;-51
2022/11/13 00:46:25;;;;;;;;;;;;;;;4.65;86.39;102701.32;1820117;79;20426;-49
2022/11/13 00:49:12;;;;;;;;;;;;;;;4.57;86.38;102705.08;1820088;79;20162;-51
2022/11/13 00:51:59;;;;;;;;;;;;;;;4.51;86.41;102713.24;1820115;79;20141;-49
2022/11/13 00:54:44;;;;;;;;;;;;;;;4.45;86.62;102718.80;1820134;78;20145;-51
2022/11/13 00:57:30;;;;;;;;;;;;;;;4.39;86.42;102708.66;1820033;79;20152;-52
2022/11/13 01:00:16;;;;;;;;;;;;;;;4.34;86.32;102712.51;1820121;79;20151;-53
2022/11/13 01:03:02;;;;;;;;;;;;;;;4.29;86.26;102707.63;1820104;79;20121;-50
2022/11/13 01:05:47;;;;;;;;;;;;;;;4.21;86.60;102701.41;1820075;78;20392;-47
2022/11/13 01:08:33;;;;;;;;;;;;;;;4.14;87.00;102705.61;1820137;78;20117;-47
2022/11/13 01:11:20;;;;;;;;;;;;;;;4.07;87.00;102711.55;1820089;79;20117;-47
2022/11/13 01:14:06;;;;;;;;;;;;;;;4.03;86.98;102711.05;1820119;79;20383;-49
2022/11/13 01:16:52;;;;;;;;;;;;;;;3.97;87.00;102703.12;1820124;79;20125;-49
2022/11/13 01:19:38;;;;;;;;;;;;;;;3.88;87.13;102700.33;1820105;79;20167;-48
2022/11/13 01:22:24;;;;;;;;;;;;;;;3.82;87.36;102703.25;1822756;78;20125;-47
2022/11/13 01:25:10;;;;;;;;;;;;;;;3.77;87.48;102697.50;1829334;78;20124;-47
2022/11/13 01:27:56;;;;;;;;;;;;;;;3.74;87.69;102703.94;1829317;78;20435;-50
2022/11/13 01:30:42;;;;;;;;;;;;;;;3.70;87.92;102700.82;1829336;78;20468;-49
2022/11/13 01:33:28;;;;;;;;;;;;;;;3.67;87.92;102696.41;1829332;78;20144;-48
2022/11/13 01:36:16;;;;;;;;;;;;;;;3.67;87.99;102697.70;1829338;78;20149;-48
2022/11/13 01:39:02;;;;;;;;;;;;;;;3.64;87.88;102699.84;1829370;78;20433;-50
2022/11/13 01:41:48;;;;;;;;;;;;;;;3.62;87.98;102702.84;1829386;78;20413;-52
2022/11/13 01:44:51;;;;;;;;;;;;;;;3.60;88.08;102699.76;1829345;78;20199;-48
2022/11/13 01:47:36;;;;;;;;;;;;;;;3.57;88.09;102698.38;1829272;78;20120;-47
2022/11/13 01:50:23;;;;;;;;;;;;;;;3.53;88.14;102693.52;1829312;78;20153;-57
2022/11/13 01:53:08;;;;;;;;;;;;;;;3.51;88.02;102696.95;1829386;77;20128;-56
2022/11/13 01:55:54;;;;;;;;;;;;;;;3.48;88.11;102697.75;1837297;77;20969;-48
2022/11/13 01:58:42;;;;;;;;;;;;;;;3.44;88.24;102699.41;1829290;78;20532;-48
2022/11/13 02:01:27;;;;;;;;;;;;;;;3.42;88.11;102701.09;1858730;77;20149;-52
2022/11/13 02:04:13;;;;;;;;;;;;;;;3.38;88.24;102693.20;1860334;77;20166;-49
2022/11/13 02:07:01;;;;;;;;;;;;;;;3.33;88.50;102696.99;1860181;77;20149;-49
2022/11/13 02:09:48;;;;;;;;;;;;;;;3.31;88.45;102699.98;1860284;77;20152;-48
2022/11/13 02:12:35;;;;;;;;;;;;;;;3.31;88.54;102696.52;1844343;77;20188;-52
2022/11/13 02:15:22;;;;;;;;;;;;;;;3.28;88.57;102695.61;1834661;77;20287;-49
2022/11/13 02:18:08;;;;;;;;;;;;;;;3.27;88.53;102691.66;1841876;77;20228;-48
2022/11/13 02:21:05;;;;;;;;;;;;;;;3.26;88.33;102695.09;1838226;77;20394;-51
2022/11/13 02:23:58;;;;;;;;;;;;;;;3.23;88.17;102691.14;1833546;77;20245;-51
2022/11/13 02:26:44;;;;;;;;;;;;;;;3.19;88.17;102678.88;1832356;78;20403;-51
2022/11/13 02:29:30;;;;;;;;;;;;;;;3.08;88.07;102675.62;1829744;78;20312;-51
2022/11/13 02:32:16;;;;;;;;;;;;;;;3.03;88.13;102674.63;1828736;78;20221;-50
2022/11/13 02:35:01;;;;;;;;;;;;;;;3.01;88.09;102660.70;1826691;78;20582;-57
2022/11/13 02:37:46;;;;;;;;;;;;;;;2.98;88.00;102660.63;1847117;78;20119;-57
2022/11/13 02:40:33;;;;;;;;;;;;;;;2.95;87.98;102654.06;1942528;74;20117;-56
2022/11/13 02:43:19;;;;;;;;;;;;;;;2.94;88.14;102648.39;1912607;74;20249;-59
2022/11/13 02:46:05;;;;;;;;;;;;;;;2.94;88.55;102647.52;1909852;74;20393;-51
2022/11/13 02:48:51;;;;;;;;;;;;;;;2.95;89.00;102642.36;1929048;74;20121;-56
2022/11/13 02:51:37;;;;;;;;;;;;;;;2.99;89.24;102641.97;1942271;74;20154;-55
2022/11/13 02:54:22;;;;;;;;;;;;;;;3.04;89.19;102650.77;1914809;74;20168;-56
2022/11/13 02:57:08;;;;;;;;;;;;;;;3.05;89.16;102643.00;1920259;74;20514;-55
2022/11/13 02:59:54;;;;;;;;;;;;;;;3.06;89.41;102647.37;1927440;74;20139;-53
2022/11/13 03:02:40;;;;;;;;;;;;;;;3.02;89.60;102644.66;1948321;73;20175;-53
2022/11/13 03:05:26;;;;;;;;;;;;;;;3.00;89.74;102647.22;1929164;73;20116;-55
2022/11/13 03:08:12;;;;;;;;;;;;;;;2.95;89.94;102641.05;1924307;74;20139;-51
2022/11/13 03:10:57;;;;;;;;;;;;;;;2.96;89.99;102642.80;1942254;74;20392;-52
2022/11/13 03:13:43;;;;;;;;;;;;;;;2.97;89.99;102643.27;1936615;73;20597;-48
2022/11/13 03:16:29;;;;;;;;;;;;;;;3.02;89.96;102642.05;1946748;73;20108;-51
2022/11/13 03:19:15;;;;;;;;;;;;;;;3.03;90.14;102642.09;1933035;73;20119;-51
2022/11/13 03:22:01;;;;;;;;;;;;;;;3.06;90.48;102640.88;1946000;73;20263;-48
2022/11/13 03:24:47;;;;;;;;;;;;;;;3.08;90.62;102645.69;1929738;74;20249;-50
2022/11/13 03:27:33;;;;;;;;;;;;;;;3.09;90.67;102644.83;1922579;74;20159;-56
2022/11/13 03:30:19;;;;;;;;;;;;;;;3.11;90.71;102643.99;1915619;74;20221;-56
2022/11/13 03:33:04;;;;;;;;;;;;;;;3.11;90.68;102638.79;1932967;74;20113;-57
2022/11/13 03:35:50;;;;;;;;;;;;;;;3.09;90.69;102639.62;1919888;74;20192;-54
2022/11/13 03:38:36;;;;;;;;;;;;;;;3.08;90.58;102640.48;1918532;74;20115;-57
2022/11/13 03:41:22;;;;;;;;;;;;;;;3.08;90.39;102637.88;1962019;72;20244;-59
2022/11/13 03:44:08;;;;;;;;;;;;;;;3.04;90.54;102625.65;1966638;72;20158;-63
2022/11/13 03:46:54;;;;;;;;;;;;;;;3.05;90.66;102624.78;1953160;72;20235;-61
2022/11/13 03:49:40;;;;;;;;;;;;;;;3.08;90.65;102633.07;1961185;72;20252;-62
2022/11/13 03:52:25;;;;;;;;;;;;;;;3.15;90.93;102629.77;1955992;72;20336;-61
2022/11/13 03:55:11;;;;;;;;;;;;;;;3.20;91.08;102642.89;1969260;72;20444;-61
2022/11/13 03:57:56;;;;;;;;;;;;;;;3.19;91.02;102635.92;1964916;72;20104;-60
2022/11/13 04:00:43;;;;;;;;;;;;;;;3.14;90.82;102642.34;1956620;72;20180;-61
2022/11/13 04:03:29;;;;;;;;;;;;;;;3.08;90.67;102635.28;1967003;72;20463;-60
2022/11/13 04:06:16;;;;;;;;;;;;;;;3.05;90.74;102642.13;1879600;76;20157;-60
2022/11/13 04:09:02;;;;;;;;;;;;;;;3.01;90.67;102641.19;1876400;76;20176;-60
2022/11/13 04:11:48;;;;;;;;;;;;;;;2.98;90.64;102637.20;1819085;79;20151;-60
2022/11/13 04:14:33;;;;;;;;;;;;;;;2.95;90.62;102629.34;1819057;79;20159;-48
2022/11/13 04:17:19;;;;;;;;;;;;;;;2.93;90.76;102629.70;1829889;76;20127;-48
2022/11/13 04:20:06;;;;;;;;;;;;;;;2.92;90.57;102626.66;1849232;78;20202;-53
2022/11/13 04:22:52;;;;;;;;;;;;;;;2.90;90.76;102632.26;1849341;78;20186;-54
2022/11/13 04:25:37;;;;;;;;;;;;;;;2.88;90.98;102620.50;1849904;76;20184;-51
2022/11/13 04:28:23;;;;;;;;;;;;;;;2.91;91.17;102620.98;1849239;76;20131;-52
2022/11/13 04:31:09;;;;;;;;;;;;;;;2.94;91.36;102623.67;1849360;78;20385;-52
2022/11/13 04:33:55;;;;;;;;;;;;;;;2.94;91.45;102628.00;1849301;78;20635;-58
2022/11/13 04:36:41;;;;;;;;;;;;;;;2.95;91.49;102634.95;1849268;78;20124;-59
2022/11/13 04:39:27;;;;;;;;;;;;;;;2.96;91.42;102631.09;1844940;78;20188;-54
2022/11/13 04:45:18;;;;;;;;;;;;;;;3.00;91.17;102635.51;1844900;78;20124;-54
2022/11/13 04:48:04;;;;;;;;;;;;;;;3.07;90.89;102634.80;1846331;76;20123;-54
2022/11/13 04:50:49;;;;;;;;;;;;;;;3.13;90.72;102639.70;1848607;78;20120;-54
2022/11/13 04:53:35;;;;;;;;;;;;;;;3.20;90.56;102633.78;1848597;78;20132;-54
2022/11/13 04:56:21;;;;;;;;;;;;;;;3.29;90.43;102633.98;1848576;78;20155;-54
2022/11/13 04:59:07;;;;;;;;;;;;;;;3.39;90.32;102639.83;1863755;76;20490;-54
2022/11/13 05:01:54;;;;;;;;;;;;;;;3.50;90.17;102637.88;1876626;76;20165;-54
2022/11/13 05:04:40;;;;;;;;;;;;;;;3.60;90.09;102632.90;1873847;76;20119;-54
2022/11/13 05:07:26;;;;;;;;;;;;;;;3.72;89.99;102623.13;1863831;76;20435;-54
2022/11/13 05:10:12;;;;;;;;;;;;;;;3.85;89.84;102632.06;1850291;77;20160;-54
2022/11/13 05:12:58;;;;;;;;;;;;;;;3.98;89.76;102640.99;1831325;78;20116;-54
2022/11/13 05:15:44;;;;;;;;;;;;;;;4.11;89.63;102636.45;1856291;77;20114;-54
2022/11/13 05:18:31;;;;;;;;;;;;;;;4.24;89.43;102629.73;1859486;77;20272;-54
2022/11/13 05:21:16;;;;;;;;;;;;;;;4.58;88.93;102626.41;1836047;77;20120;-58
2022/11/13 05:24:03;;;;;;;;;;;;;;;4.97;88.04;102632.64;1839876;77;20202;-57
2022/11/13 05:26:49;;;;;;;;;;;;;;;5.25;87.45;102637.38;1833447;77;20429;-56
2022/11/13 05:29:35;;;;;;;;;;;;;;;5.42;87.31;102638.47;1831281;78;20181;-56
2022/11/13 05:32:21;;;;;;;;;;;;;;;5.52;87.26;102636.87;1831896;77;20181;-57
2022/11/13 05:35:07;;;;;;;;;;;;;;;5.68;87.08;102627.05;1831135;78;20239;-58
2022/11/13 05:37:53;;;;;;;;;;;;;;;6.00;86.51;102635.70;1831334;78;20433;-61
2022/11/13 05:40:39;;;;;;;;;;;;;;;6.47;85.60;102645.72;1831250;78;20176;-60
2022/11/13 05:43:25;;;;;;;;;;;;;;;6.94;85.02;102650.45;1829337;77;20121;-63
2022/11/13 05:46:15;;;;;;;;;;;;;;;7.64;85.04;102647.76;1844241;77;20243;-54
2022/11/13 05:49:02;;;;;;;;;;;;;;;8.76;84.31;102643.14;1853832;77;20442;-53
2022/11/13 05:51:47;;;;;;;;;;;;;;;9.83;82.93;102630.48;1850024;77;20241;-54
2022/11/13 05:54:33;;;;;;;;;;;;;;;10.74;81.25;102632.49;1801493;80;20165;-54
2022/11/13 05:57:19;;;;;;;;;;;;;;;11.43;79.49;102630.86;1837572;77;20141;-54
2022/11/13 06:00:05;;;;;;;;;;;;;;;11.84;78.01;102629.42;1869414;77;20169;-53
2022/11/13 06:02:51;;;;;;;;;;;;;;;12.48;76.42;102619.67;1865550;77;20118;-54
2022/11/13 06:05:37;;;;;;;;;;;;;;;12.80;74.84;102614.26;1863694;77;20139;-54
2022/11/13 06:08:22;;;;;;;;;;;;;;;13.06;73.38;102600.11;1864048;77;20173;-54
2022/11/13 06:11:10;;;;;;;;;;;;;;;13.48;71.99;102593.55;1867419;77;20380;-54
2022/11/13 06:13:56;;;;;;;;;;;;;;;13.58;68.29;102598.17;1863780;76;20122;-53
2022/11/13 06:16:42;;;;;;;;;;;;;;;13.67;66.68;102591.81;1863666;76;20149;-53
2022/11/13 06:19:28;;;;;;;;;;;;;;;14.10;66.76;102596.09;1848362;77;20120;-53
2022/11/13 06:22:14;;;;;;;;;;;;;;;14.64;66.17;102602.72;1831231;78;20155;-53
2022/11/13 06:25:04;;;;;;;;;;;;;;;14.91;64.54;102597.13;1832118;78;20217;-54
2022/11/13 06:27:54;;;;;;;;;;;;;;;15.25;62.67;102599.70;1859675;76;20140;-52
2022/11/13 06:30:37;;;;;;;;;;;;;;;15.43;62.05;102594.29;1863830;77;20114;-51
2022/11/13 06:33:23;;;;;;;;;;;;;;;15.83;60.88;102593.11;1863661;76;20165;-52
2022/11/13 06:36:14;;;;;;;;;;;;;;;16.37;61.58;102597.12;1863763;76;20114;-49
2022/11/13 06:39:00;;;;;;;;;;;;;;;16.94;61.13;102589.37;1833571;77;20161;-52
2022/11/13 06:41:46;;;;;;;;;;;;;;;17.11;58.87;102591.88;1833273;77;20244;-52
2022/11/13 06:44:32;;;;;;;;;;;;;;;17.58;59.20;102584.33;1854566;77;20123;-51
2022/11/13 06:47:18;;;;;;;;;;;;;;;17.95;57.91;102582.44;1844319;77;20129;-52
2022/11/13 06:50:04;;;;;;;;;;;;;;;18.35;57.66;102578.56;1851004;77;20204;-53
2022/11/13 06:52:49;;;;;;;;;;;;;;;18.40;54.02;102577.91;1844268;77;20270;-56
2022/11/13 06:55:35;;;;;;;;;;;;;;;18.42;53.49;102568.89;1847932;77;20266;-62
2022/11/13 06:58:21;;;;;;;;;;;;;;;18.64;52.29;102562.63;1841755;77;20203;-55
2022/11/13 07:01:12;;;;;;;;;;;;;;;18.90;51.13;102566.83;1851821;77;20552;-52
2022/11/13 07:03:57;;;;;;;;;;;;;;;19.05;51.28;102570.61;1843503;77;20120;-57
2022/11/13 07:06:43;;;;;;;;;;;;;;;19.57;51.52;102580.20;1859711;75;20198;-59
2022/11/13 07:09:29;;;;;;;;;;;;;;;19.76;49.16;102564.64;1847564;77;20187;-57
2022/11/13 07:12:15;;;;;;;;;;;;;;;19.99;48.79;102566.16;1860105;77;20522;-52
2022/11/13 07:15:01;;;;;;;;;;;;;;;20.29;48.48;102565.11;1860553;77;20391;-50
2022/11/13 07:17:46;;;;;;;;;;;;;;;20.65;48.92;102565.49;1849972;77;20256;-57
2022/11/13 07:20:33;;;;;;;;;;;;;;;21.06;47.94;102557.52;1858605;76;20240;-58
2022/11/13 07:23:18;;;;;;;;;;;;;;;21.45;47.66;102553.16;1859799;77;20413;-58
2022/11/13 07:26:05;;;;;;;;;;;;;;;21.77;46.92;102555.80;1858121;77;20279;-53
2022/11/13 07:28:50;;;;;;;;;;;;;;;22.15;45.76;102556.70;1853993;77;20115;-52
2022/11/13 07:31:36;;;;;;;;;;;;;;;22.29;44.02;102551.41;1851345;77;20145;-60
2022/11/13 07:34:22;;;;;;;;;;;;;;;22.49;43.99;102554.72;1860218;77;20116;-49
2022/11/13 07:37:07;;;;;;;;;;;;;;;22.59;42.13;102546.47;1857144;77;20120;-51
2022/11/13 07:39:53;;;;;;;;;;;;;;;22.39;40.90;102553.54;1847937;77;20195;-53
2022/11/13 07:42:39;;;;;;;;;;;;;;;21.56;42.62;102552.06;1851515;77;20249;-52
2022/11/13 07:45:25;;;;;;;;;;;;;;;21.64;41.90;102551.63;1849643;77;20232;-51
2022/11/13 07:48:10;;;;;;;;;;;;;;;22.33;41.43;102556.12;1853308;77;20522;-49
2022/11/13 07:50:58;;;;;;;;;;;;;;;22.69;41.42;102557.05;1850394;77;20475;-56
2022/11/13 07:53:43;;;;;;;;;;;;;;;23.31;39.18;102558.56;1853487;77;20389;-57
2022/11/13 07:56:29;;;;;;;;;;;;;;;23.36;38.58;102538.13;1854467;77;20252;-56
2022/11/13 07:59:15;;;;;;;;;;;;;;;23.58;39.08;102554.57;1849225;77;20145;-57
2022/11/13 08:02:00;;;;;;;;;;;;;;;23.42;37.78;102551.16;1850878;77;20269;-55
2022/11/13 08:04:46;;;;;;;;;;;;;;;23.48;37.87;102532.81;1854340;77;20130;-58
2022/11/13 08:07:31;;;;;;;;;;;;;;;23.48;37.54;102536.84;1844009;76;20560;-58
2022/11/13 08:10:18;;;;;;;;;;;;;;;23.64;37.07;102524.58;1839058;77;20313;-58
2022/11/13 08:13:06;;;;;;;;;;;;;;;23.69;36.16;102517.08;1839691;77;20124;-58
2022/11/13 08:15:52;;;;;;;;;;;;;;;23.41;36.99;102512.67;1837567;77;20124;-58
2022/11/13 08:18:38;;;;;;;;;;;;;;;23.55;37.02;102523.84;1833874;78;20161;-58
2022/11/13 08:21:24;;;;;;;;;;;;;;;23.03;37.08;102522.69;1838883;77;20326;-58
2022/11/13 08:24:10;;;;;;;;;;;;;;;22.97;37.92;102523.09;1833737;78;20222;-58
2022/11/13 08:26:56;;;;;;;;;;;;;;;23.23;36.99;102508.50;1834830;77;20386;-55
2022/11/13 08:29:42;;;;;;;;;;;;;;;23.07;36.52;102511.30;1863867;77;20115;-53
2022/11/13 08:32:28;;;;;;;;;;;;;;;22.85;35.84;102495.66;1866190;77;20123;-51
2022/11/13 08:35:14;;;;;;;;;;;;;;;22.90;35.83;102503.80;1866129;77;20147;-50
2022/11/13 08:38:04;;;;;;;;;;;;;;;23.25;36.30;102498.02;1864580;77;20391;-51
2022/11/13 08:40:49;;;;;;;;;;;;;;;23.26;36.58;102511.00;1848985;77;20390;-51
2022/11/13 08:43:36;;;;;;;;;;;;;;;23.97;35.83;102503.63;1840468;77;20260;-54
2022/11/13 08:46:21;;;;;;;;;;;;;;;23.80;36.04;102501.59;1845216;77;20287;-57
2022/11/13 08:49:07;;;;;;;;;;;;;;;23.41;36.52;102505.95;1849706;77;20271;-56
2022/11/13 08:51:52;;;;;;;;;;;;;;;23.51;35.75;102497.64;1842425;77;20164;-58
2022/11/13 08:54:38;;;;;;;;;;;;;;;23.60;35.97;102499.36;1838815;77;20120;-57
2022/11/13 08:57:24;;;;;;;;;;;;;;;22.68;37.48;102520.89;1835057;78;20211;-54
2022/11/13 09:00:10;;;;;;;;;;;;;;;22.30;37.46;102514.73;1835097;78;20149;-55
2022/11/13 09:02:57;;;;;;;;;;;;;;;21.36;38.68;102518.81;1837118;77;20188;-53
2022/11/13 09:05:43;;;;;;;;;;;;;;;22.45;37.67;102510.25;1835352;77;20241;-51
2022/11/13 09:08:30;;;;;;;;;;;;;;;23.02;34.36;102495.45;1838394;77;20227;-56
2022/11/13 09:11:18;;;;;;;;;;;;;;;23.16;35.43;102503.13;1838289;77;20401;-51
2022/11/13 09:14:03;;;;;;;;;;;;;;;22.72;35.86;102515.70;1846710;77;20360;-54
2022/11/13 09:16:49;;;;;;;;;;;;;;;23.01;36.02;102499.09;1869550;77;20120;-55
2022/11/13 09:19:35;;;;;;;;;;;;;;;23.23;35.63;102497.25;1869574;77;20160;-55
2022/11/13 09:22:21;;;;;;;;;;;;;;;23.54;34.96;102490.37;1869485;77;20213;-51
2022/11/13 09:25:07;;;;;;;;;;;;;;;23.63;35.05;102504.05;1867889;77;20395;-54
2022/11/13 09:27:54;;;;;;;;;;;;;;;23.43;33.63;102478.48;1869625;77;20446;-57
2022/11/13 09:30:40;;;;;;;;;;;;;;;23.61;33.98;102476.86;1869479;77;20118;-55
2022/11/13 09:33:25;;;;;;;;;;;;;;;24.05;34.05;102486.47;1869459;77;20118;-55
2022/11/13 09:36:13;;;;;;;;;;;;;;;24.44;33.38;102477.45;1867305;77;20114;-55
2022/11/13 09:38:59;;;;;;;;;;;;;;;24.34;34.05;102470.13;1869209;77;20113;-57
2022/11/13 09:41:50;;;;;;;;;;;;;;;23.91;34.23;102467.25;1851515;77;20422;-54
2022/11/13 09:44:46;;;;;;;;;;;;;;;23.66;34.12;102462.63;1843581;77;20193;-56
2022/11/13 09:47:33;;;;;;;;;;;;;;;22.69;34.37;102456.36;1847575;77;20249;-53
2022/11/13 09:50:23;;;;;;;;;;;;;;;20.81;36.81;102453.97;1830053;77;20132;-49
2022/11/13 09:53:11;;;;;;;;;;;;;;;19.58;38.71;102463.50;1852206;77;20143;-48
2022/11/13 09:56:01;;;;;;;;;;;;;;;19.46;39.25;102448.47;1836803;78;20116;-56
2022/11/13 09:58:48;;;;;;;;;;;;;;;19.27;39.67;102455.20;1836767;78;20164;-54
2022/11/13 10:01:35;;;;;;;;;;;;;;;19.27;40.24;102452.53;1836801;78;20151;-52
2022/11/13 10:04:22;;;;;;;;;;;;;;;20.67;38.36;102455.20;1839757;77;20116;-47
2022/11/13 10:07:10;;;;;;;;;;;;;;;21.93;37.17;102458.76;1868620;76;20408;-46
2022/11/13 10:10:03;;;;;;;;;;;;;;;21.71;36.45;102447.59;1853753;77;20157;-50
2022/11/13 10:12:50;;;;;;;;;;;;;;;21.04;36.40;102453.16;1854249;77;20155;-48
2022/11/13 10:15:36;;;;;;;;;;;;;;;20.78;36.79;102450.12;1850670;77;20389;-57
2022/11/13 10:18:24;;;;;;;;;;;;;;;21.57;35.83;102454.61;1868886;77;20122;-57
2022/11/13 10:21:14;;;;;;;;;;;;;;;21.68;36.12;102450.45;1857341;77;20415;-57
2022/11/13 10:24:02;;;;;;;;;;;;;;;20.74;36.94;102444.55;1831280;78;20153;-57
2022/11/13 10:26:48;;;;;;;;;;;;;;;20.36;36.81;102450.60;1831148;78;20176;-58
2022/11/13 10:29:34;;;;;;;;;;;;;;;20.31;37.28;102448.19;1831145;78;20205;-57
2022/11/13 10:32:21;;;;;;;;;;;;;;;20.39;37.56;102460.67;1831285;78;20128;-57
2022/11/13 10:35:09;;;;;;;;;;;;;;;20.38;37.93;102450.94;1805137;79;20153;-59
2022/11/13 10:38:03;;;;;;;;;;;;;;;20.99;37.58;102445.88;1805209;79;20119;-58
2022/11/13 10:40:49;;;;;;;;;;;;;;;21.49;36.42;102443.48;1805238;79;20131;-58
2022/11/13 10:43:35;;;;;;;;;;;;;;;22.20;36.03;102441.93;1859876;77;20173;-58
2022/11/13 10:46:25;;;;;;;;;;;;;;;22.41;35.28;102427.71;1866129;77;20142;-58
2022/11/13 10:49:13;;;;;;;;;;;;;;;22.28;35.86;102437.00;1866125;77;20119;-58
2022/11/13 10:52:01;;;;;;;;;;;;;;;22.54;36.17;102441.23;1866125;77;20119;-58
2022/11/13 10:54:47;;;;;;;;;;;;;;;22.83;35.86;102434.47;1866152;77;20155;-58
2022/11/13 10:57:34;;;;;;;;;;;;;;;22.49;36.30;102433.45;1866188;77;20198;-58
2022/11/13 11:00:22;;;;;;;;;;;;;;;22.95;35.29;102420.25;1866105;77;20126;-49
2022/11/13 11:03:09;;;;;;;;;;;;;;;22.87;35.21;102423.44;1866234;77;20122;-53
2022/11/13 11:05:56;;;;;;;;;;;;;;;22.58;35.73;102419.94;1866117;76;20118;-53
2022/11/13 11:08:42;;;;;;;;;;;;;;;21.72;36.85;102422.50;1865341;77;20180;-54
2022/11/13 11:14:33;;;;;;;;;;;;;;;22.16;36.04;102417.11;1867357;77;20116;-50
2022/11/13 11:17:19;;;;;;;;;;;;;;;22.23;35.94;102401.51;1867406;77;20183;-50
2022/11/13 11:20:25;;;;;;;;;;;;;;;21.97;35.84;102397.76;1867287;77;20120;-51
2022/11/13 11:23:12;;;;;;;;;;;;;;;21.66;36.34;102392.91;1836485;77;20155;-53
2022/11/13 11:25:59;;;;;;;;;;;;;;;20.92;37.32;102391.80;1840800;76;20175;-52
2022/11/13 11:28:50;;;;;;;;;;;;;;;20.74;37.86;102380.80;1848695;77;20143;-55
2022/11/13 11:31:37;;;;;;;;;;;;;;;20.39;38.39;102371.53;1849000;77;20189;-53
2022/11/13 11:34:24;;;;;;;;;;;;;;;20.46;38.61;102371.59;1838758;78;20119;-48
2022/11/13 11:37:21;;;;;;;;;;;;;;;20.38;38.56;102363.98;1846623;77;20112;-55
2022/11/13 11:40:14;;;;;;;;;;;;;;;20.26;38.97;102365.98;1869734;77;20116;-56
2022/11/13 11:43:18;;;;;;;;;;;;;;;20.46;39.02;102365.38;1867414;77;20262;-56
2022/11/13 11:46:04;;;;;;;;;;;;;;;20.29;39.27;102363.16;1869695;77;20211;-57
2022/11/13 11:48:50;;;;;;;;;;;;;;;19.68;39.46;102348.06;1869682;77;20145;-52
2022/11/13 11:51:41;;;;;;;;;;;;;;;19.36;40.22;102346.17;1860446;77;20203;-51
2022/11/13 11:54:33;;;;;;;;;;;;;;;18.70;41.00;102335.56;1850353;77;20290;-50
2022/11/13 11:57:29;;;;;;;;;;;;;;;17.80;42.74;102339.22;1854169;77;20139;-50
2022/11/13 12:00:16;;;;;;;;;;;;;;;16.84;44.86;102321.95;1862961;77;20163;-49
2022/11/13 12:03:03;;;;;;;;;;;;;;;16.00;46.47;102318.91;1855118;77;20129;-49
2022/11/13 12:06:06;;;;;;;;;;;;;;;15.55;47.51;102317.42;1855400;77;20216;-48
2022/11/13 12:08:56;;;;;;;;;;;;;;;15.37;48.34;102334.38;1838809;77;20434;-50
2022/11/13 12:11:46;;;;;;;;;;;;;;;15.30;48.56;102333.31;1828026;77;20167;-51
2022/11/13 12:14:37;;;;;;;;;;;;;;;15.23;49.38;102328.66;1841517;78;20410;-52
2022/11/13 12:17:27;;;;;;;;;;;;;;;15.13;49.74;102337.85;1839816;76;20168;-48
2022/11/13 12:20:24;;;;;;;;;;;;;;;15.05;50.27;102320.39;1836517;78;20199;-47
2022/11/13 12:23:21;;;;;;;;;;;;;;;14.89;50.54;102331.55;1840049;78;20117;-50
2022/11/13 12:26:08;;;;;;;;;;;;;;;14.82;51.04;102330.87;1840083;78;20140;-48
2022/11/13 12:29:08;;;;;;;;;;;;;;;14.73;51.24;102325.85;1843822;76;20143;-48
2022/11/13 12:31:58;;;;;;;;;;;;;;;14.68;51.17;102328.63;1822912;78;20190;-59
2022/11/13 12:34:45;;;;;;;;;;;;;;;14.63;51.37;102328.80;1840441;78;20148;-59
2022/11/13 12:37:33;;;;;;;;;;;;;;;14.59;51.58;102329.81;1844185;76;20151;-59
2022/11/13 12:40:29;;;;;;;;;;;;;;;14.54;51.68;102329.50;1839808;78;20409;-59
2022/11/13 12:43:23;;;;;;;;;;;;;;;14.47;51.72;102319.53;1843329;76;20116;-47
2022/11/13 12:46:10;;;;;;;;;;;;;;;14.45;51.70;102324.87;1840057;78;20428;-50
2022/11/13 12:48:56;;;;;;;;;;;;;;;14.48;51.84;102326.59;1841321;77;20128;-57
2022/11/13 12:51:43;;;;;;;;;;;;;;;14.48;51.82;102321.28;1843553;76;20266;-48
2022/11/13 12:54:30;;;;;;;;;;;;;;;14.44;51.73;102316.97;1841253;78;20116;-49
2022/11/13 12:57:17;;;;;;;;;;;;;;;14.39;51.19;102317.13;1842562;76;20116;-48
2022/11/13 13:00:23;;;;;;;;;;;;;;;14.35;51.11;102317.24;1839431;78;20215;-54
2022/11/13 13:03:23;;;;;;;;;;;;;;;14.27;51.55;102315.72;1838626;78;20394;-53
2022/11/13 13:06:13;;;;;;;;;;;;;;;14.25;51.53;102317.52;1842444;76;20135;-47
2022/11/13 13:09:17;;;;;;;;;;;;;;;14.19;51.38;102323.47;1842649;78;20168;-46
2022/11/13 13:12:05;;;;;;;;;;;;;;;14.13;51.70;102325.84;1847258;76;20124;-48
2022/11/13 13:14:59;;;;;;;;;;;;;;;14.07;52.02;102316.29;1852279;76;20251;-45
2022/11/13 13:17:46;;;;;;;;;;;;;;;14.01;52.18;102311.14;1854002;76;20214;-52
2022/11/13 13:20:34;;;;;;;;;;;;;;;13.96;52.47;102317.48;1875639;75;20116;-48
2022/11/13 13:23:21;;;;;;;;;;;;;;;13.89;52.59;102311.52;1854554;76;20115;-48
2022/11/13 13:26:14;;;;;;;;;;;;;;;13.85;52.72;102308.52;1846807;76;20175;-49
2022/11/13 13:29:02;;;;;;;;;;;;;;;13.80;52.79;102307.33;1845039;78;20135;-49
2022/11/13 13:31:49;;;;;;;;;;;;;;;13.78;52.89;102311.80;1843798;78;20193;-48
2022/11/13 13:34:36;;;;;;;;;;;;;;;13.73;53.02;102312.38;1843222;78;20120;-48
2022/11/13 13:37:27;;;;;;;;;;;;;;;13.69;53.11;102312.05;1843268;78;20156;-52
2022/11/13 13:40:29;;;;;;;;;;;;;;;13.64;53.26;102306.01;1843267;78;20116;-52
2022/11/13 13:43:19;;;;;;;;;;;;;;;13.62;53.36;102301.22;1855311;76;20120;-49
2022/11/13 13:46:09;;;;;;;;;;;;;;;13.59;53.45;102290.23;1843286;78;20123;-49
2022/11/13 13:48:56;;;;;;;;;;;;;;;13.55;53.55;102283.30;1843236;78;20406;-50
2022/11/13 13:51:43;;;;;;;;;;;;;;;13.49;53.66;102281.69;1843250;78;20115;-50
2022/11/13 13:54:30;;;;;;;;;;;;;;;13.43;53.76;102291.12;1851488;76;20123;-50
2022/11/13 13:57:16;;;;;;;;;;;;;;;13.37;53.90;102289.97;1847071;78;20119;-51
2022/11/13 14:00:02;;;;;;;;;;;;;;;13.32;54.09;102300.66;1847148;78;20239;-49
2022/11/13 14:02:49;;;;;;;;;;;;;;;13.28;54.26;102297.64;1847129;78;20176;-51
2022/11/13 14:05:36;;;;;;;;;;;;;;;13.29;54.36;102302.47;1847047;78;20132;-52
2022/11/13 14:08:23;;;;;;;;;;;;;;;13.31;54.37;102291.43;1850480;76;20511;-49
2022/11/13 14:11:17;;;;;;;;;;;;;;;13.31;54.29;102296.25;1846886;76;20122;-50
2022/11/13 14:14:07;;;;;;;;;;;;;;;13.35;54.29;102297.05;1851814;76;20120;-52
2022/11/13 14:16:55;;;;;;;;;;;;;;;13.35;54.28;102301.48;1850124;76;20243;-49
2022/11/13 14:19:42;;;;;;;;;;;;;;;13.34;54.16;102297.11;1855411;76;20142;-49
2022/11/13 14:22:28;;;;;;;;;;;;;;;13.31;54.26;102290.11;1851743;76;20484;-50
2022/11/13 14:25:16;;;;;;;;;;;;;;;13.32;54.33;102290.53;1851723;76;20121;-49
2022/11/13 14:28:02;;;;;;;;;;;;;;;13.30;54.27;102291.00;1847967;76;20156;-50
2022/11/13 14:30:49;;;;;;;;;;;;;;;13.27;54.39;102296.36;1850975;76;20116;-48